sensor_id;sensor_type;location;lat;lon;timestamp;temperature;humidity
2363;DHT22;64265;51.664;7.626;2023-07-02T00:01:45;24.30;91.60
2363;DHT22;64265;51.664;7.626;2023-07-02T00:04:13;24.30;91.60
2363;DHT22;64265;51.664;7.626;2023-07-02T00:06:41;24.30;91.60
2363;DHT22;64265;51.664;7.626;2023-07-02T00:09:08;24.30;91.50
2363;DHT22;64265;51.664;7.626;2023-07-02T00:11:36;24.30;91.60
2363;DHT22;64265;51.664;7.626;2023-07-02T00:14:05;24.30;91.80
2363;DHT22;64265;51.664;7.626;2023-07-02T00:16:32;24.20;91.50
2363;DHT22;64265;51.664;7.626;2023-07-02T00:18:58;24.20;91.50
2363;DHT22;64265;51.664;7.626;2023-07-02T00:21:26;24.20;91.50
2363;DHT22;64265;51.664;7.626;2023-07-02T00:23:54;24.20;91.50
2363;DHT22;64265;51.664;7.626;2023-07-02T00:26:22;24.20;91.50
2363;DHT22;64265;51.664;7.626;2023-07-02T00:28:49;24.20;91.50
2363;DHT22;64265;51.664;7.626;2023-07-02T00:31:17;24.20;91.50
2363;DHT22;64265;51.664;7.626;2023-07-02T00:33:44;24.20;91.50
2363;DHT22;64265;51.664;7.626;2023-07-02T00:36:11;24.20;91.50
2363;DHT22;64265;51.664;7.626;2023-07-02T00:38:40;24.20;91.50
2363;DHT22;64265;51.664;7.626;2023-07-02T00:41:07;24.20;91.50
2363;DHT22;64265;51.664;7.626;2023-07-02T00:43:34;24.20;91.50
2363;DHT22;64265;51.664;7.626;2023-07-02T00:46:01;24.20;91.50
2363;DHT22;64265;51.664;7.626;2023-07-02T00:48:31;24.20;91.50
2363;DHT22;64265;51.664;7.626;2023-07-02T00:50:58;24.10;91.40
2363;DHT22;64265;51.664;7.626;2023-07-02T00:53:25;24.10;91.40
2363;DHT22;64265;51.664;7.626;2023-07-02T00:55:52;24.10;91.50
2363;DHT22;64265;51.664;7.626;2023-07-02T00:58:19;24.10;91.40
2363;DHT22;64265;51.664;7.626;2023-07-02T01:00:46;24.10;91.40
2363;DHT22;64265;51.664;7.626;2023-07-02T01:03:13;24.00;91.40
2363;DHT22;64265;51.664;7.626;2023-07-02T01:05:41;24.10;91.40
2363;DHT22;64265;51.664;7.626;2023-07-02T01:08:08;24.00;91.40
2363;DHT22;64265;51.664;7.626;2023-07-02T01:10:36;24.00;91.40
2363;DHT22;64265;51.664;7.626;2023-07-02T01:13:08;24.10;91.40
2363;DHT22;64265;51.664;7.626;2023-07-02T01:15:37;24.00;91.40
2363;DHT22;64265;51.664;7.626;2023-07-02T01:18:05;24.00;91.30
2363;DHT22;64265;51.664;7.626;2023-07-02T01:20:34;24.00;91.40
2363;DHT22;64265;51.664;7.626;2023-07-02T01:23:03;24.00;91.40
2363;DHT22;64265;51.664;7.626;2023-07-02T01:25:30;24.00;91.40
2363;DHT22;64265;51.664;7.626;2023-07-02T01:27:57;24.00;91.40
2363;DHT22;64265;51.664;7.626;2023-07-02T01:30:24;24.00;91.40
2363;DHT22;64265;51.664;7.626;2023-07-02T01:32:51;24.00;91.40
2363;DHT22;64265;51.664;7.626;2023-07-02T01:35:18;24.00;91.40
2363;DHT22;64265;51.664;7.626;2023-07-02T01:37:46;24.00;91.40
2363;DHT22;64265;51.664;7.626;2023-07-02T01:40:13;24.00;91.40
2363;DHT22;64265;51.664;7.626;2023-07-02T01:42:40;24.00;91.40
2363;DHT22;64265;51.664;7.626;2023-07-02T01:45:08;23.90;91.30
2363;DHT22;64265;51.664;7.626;2023-07-02T01:47:34;24.00;91.40
2363;DHT22;64265;51.664;7.626;2023-07-02T01:50:04;23.90;91.30
2363;DHT22;64265;51.664;7.626;2023-07-02T01:52:31;24.00;91.40
2363;DHT22;64265;51.664;7.626;2023-07-02T01:55:01;23.90;91.40
2363;DHT22;64265;51.664;7.626;2023-07-02T01:57:28;23.90;91.40
2363;DHT22;64265;51.664;7.626;2023-07-02T01:59:56;23.90;91.40
2363;DHT22;64265;51.664;7.626;2023-07-02T02:02:22;23.90;91.30
2363;DHT22;64265;51.664;7.626;2023-07-02T02:04:49;23.90;91.30
2363;DHT22;64265;51.664;7.626;2023-07-02T02:07:16;23.90;91.30
2363;DHT22;64265;51.664;7.626;2023-07-02T02:09:43;23.90;91.40
2363;DHT22;64265;51.664;7.626;2023-07-02T02:12:11;23.90;91.40
2363;DHT22;64265;51.664;7.626;2023-07-02T02:14:39;23.90;91.30
2363;DHT22;64265;51.664;7.626;2023-07-02T02:17:06;23.90;91.40
2363;DHT22;64265;51.664;7.626;2023-07-02T02:19:33;23.90;91.40
2363;DHT22;64265;51.664;7.626;2023-07-02T02:21:59;23.80;91.30
2363;DHT22;64265;51.664;7.626;2023-07-02T02:24:26;23.80;91.30
2363;DHT22;64265;51.664;7.626;2023-07-02T02:26:53;23.90;91.40
2363;DHT22;64265;51.664;7.626;2023-07-02T02:29:21;23.90;91.40
2363;DHT22;64265;51.664;7.626;2023-07-02T02:31:48;23.80;91.30
2363;DHT22;64265;51.664;7.626;2023-07-02T02:34:15;23.80;91.30
2363;DHT22;64265;51.664;7.626;2023-07-02T02:36:44;23.80;91.30
2363;DHT22;64265;51.664;7.626;2023-07-02T02:39:12;23.80;91.30
2363;DHT22;64265;51.664;7.626;2023-07-02T02:41:39;23.80;91.40
2363;DHT22;64265;51.664;7.626;2023-07-02T02:44:06;23.80;91.30
2363;DHT22;64265;51.664;7.626;2023-07-02T02:46:34;23.80;91.30
2363;DHT22;64265;51.664;7.626;2023-07-02T02:49:01;23.80;91.30
2363;DHT22;64265;51.664;7.626;2023-07-02T02:51:27;23.80;91.30
2363;DHT22;64265;51.664;7.626;2023-07-02T02:53:54;23.80;91.40
2363;DHT22;64265;51.664;7.626;2023-07-02T02:56:21;23.80;91.30
2363;DHT22;64265;51.664;7.626;2023-07-02T02:58:48;23.80;91.40
2363;DHT22;64265;51.664;7.626;2023-07-02T03:01:14;23.80;91.40
2363;DHT22;64265;51.664;7.626;2023-07-02T03:03:42;23.80;91.30
2363;DHT22;64265;51.664;7.626;2023-07-02T03:06:12;23.80;91.40
2363;DHT22;64265;51.664;7.626;2023-07-02T03:08:40;23.80;91.40
2363;DHT22;64265;51.664;7.626;2023-07-02T03:11:07;23.80;91.40
2363;DHT22;64265;51.664;7.626;2023-07-02T03:13:33;23.70;91.30
2363;DHT22;64265;51.664;7.626;2023-07-02T03:16:01;23.80;91.40
2363;DHT22;64265;51.664;7.626;2023-07-02T03:18:27;23.70;91.30
2363;DHT22;64265;51.664;7.626;2023-07-02T03:20:55;23.80;91.40
2363;DHT22;64265;51.664;7.626;2023-07-02T03:23:22;23.70;91.70
2363;DHT22;64265;51.664;7.626;2023-07-02T03:25:49;23.70;91.40
2363;DHT22;64265;51.664;7.626;2023-07-02T03:28:16;23.70;91.40
2363;DHT22;64265;51.664;7.626;2023-07-02T03:30:42;23.70;91.40
2363;DHT22;64265;51.664;7.626;2023-07-02T03:33:09;23.70;91.40
2363;DHT22;64265;51.664;7.626;2023-07-02T03:35:36;23.70;91.30
2363;DHT22;64265;51.664;7.626;2023-07-02T03:38:05;23.70;91.40
2363;DHT22;64265;51.664;7.626;2023-07-02T03:40:32;23.70;91.40
2363;DHT22;64265;51.664;7.626;2023-07-02T03:42:59;23.70;91.40
2363;DHT22;64265;51.664;7.626;2023-07-02T03:45:25;23.70;91.40
2363;DHT22;64265;51.664;7.626;2023-07-02T03:47:52;23.70;91.40
2363;DHT22;64265;51.664;7.626;2023-07-02T03:50:19;23.70;91.30
2363;DHT22;64265;51.664;7.626;2023-07-02T03:52:46;23.70;91.40
2363;DHT22;64265;51.664;7.626;2023-07-02T03:55:14;23.60;91.30
2363;DHT22;64265;51.664;7.626;2023-07-02T03:57:41;23.60;91.30
2363;DHT22;64265;51.664;7.626;2023-07-02T04:00:08;23.60;91.30
2363;DHT22;64265;51.664;7.626;2023-07-02T04:02:36;23.70;91.40
2363;DHT22;64265;51.664;7.626;2023-07-02T04:05:04;23.70;91.40
2363;DHT22;64265;51.664;7.626;2023-07-02T04:07:31;23.70;91.40
2363;DHT22;64265;51.664;7.626;2023-07-02T04:09:58;23.70;91.40
2363;DHT22;64265;51.664;7.626;2023-07-02T04:12:26;23.70;91.30
2363;DHT22;64265;51.664;7.626;2023-07-02T04:14:53;23.70;91.30
2363;DHT22;64265;51.664;7.626;2023-07-02T04:17:20;23.70;91.30
2363;DHT22;64265;51.664;7.626;2023-07-02T04:19:46;23.60;91.30
2363;DHT22;64265;51.664;7.626;2023-07-02T04:22:14;23.60;91.30
2363;DHT22;64265;51.664;7.626;2023-07-02T04:24:41;23.60;91.20
2363;DHT22;64265;51.664;7.626;2023-07-02T04:27:07;23.60;91.30
2363;DHT22;64265;51.664;7.626;2023-07-02T04:29:35;23.60;91.30
2363;DHT22;64265;51.664;7.626;2023-07-02T04:32:02;23.60;91.30
2363;DHT22;64265;51.664;7.626;2023-07-02T04:34:29;23.60;91.40
2363;DHT22;64265;51.664;7.626;2023-07-02T04:36:56;23.60;91.30
2363;DHT22;64265;51.664;7.626;2023-07-02T04:39:22;23.60;91.30
2363;DHT22;64265;51.664;7.626;2023-07-02T04:41:49;23.60;91.30
2363;DHT22;64265;51.664;7.626;2023-07-02T04:44:18;23.60;91.30
2363;DHT22;64265;51.664;7.626;2023-07-02T04:46:49;23.60;91.40
2363;DHT22;64265;51.664;7.626;2023-07-02T04:52:10;23.60;91.40
2363;DHT22;64265;51.664;7.626;2023-07-02T04:54:36;23.50;91.30
2363;DHT22;64265;51.664;7.626;2023-07-02T04:57:04;23.60;91.40
2363;DHT22;64265;51.664;7.626;2023-07-02T04:59:30;23.50;91.30
2363;DHT22;64265;51.664;7.626;2023-07-02T05:01:58;23.50;91.30
2363;DHT22;64265;51.664;7.626;2023-07-02T05:04:25;23.50;91.40
2363;DHT22;64265;51.664;7.626;2023-07-02T05:06:53;23.50;91.40
2363;DHT22;64265;51.664;7.626;2023-07-02T05:09:20;23.50;91.30
2363;DHT22;64265;51.664;7.626;2023-07-02T05:11:46;23.50;91.30
2363;DHT22;64265;51.664;7.626;2023-07-02T05:14:13;23.50;91.40
2363;DHT22;64265;51.664;7.626;2023-07-02T05:16:40;23.50;91.40
2363;DHT22;64265;51.664;7.626;2023-07-02T05:19:08;23.50;91.30
2363;DHT22;64265;51.664;7.626;2023-07-02T05:21:35;23.50;91.40
2363;DHT22;64265;51.664;7.626;2023-07-02T05:24:02;23.50;91.40
2363;DHT22;64265;51.664;7.626;2023-07-02T05:26:28;23.50;91.40
2363;DHT22;64265;51.664;7.626;2023-07-02T05:28:55;23.50;91.40
2363;DHT22;64265;51.664;7.626;2023-07-02T05:31:22;23.50;91.40
2363;DHT22;64265;51.664;7.626;2023-07-02T05:33:48;23.50;91.40
2363;DHT22;64265;51.664;7.626;2023-07-02T05:36:17;23.50;91.40
2363;DHT22;64265;51.664;7.626;2023-07-02T05:38:43;23.50;91.40
2363;DHT22;64265;51.664;7.626;2023-07-02T05:41:10;23.50;91.40
2363;DHT22;64265;51.664;7.626;2023-07-02T05:43:37;23.50;91.40
2363;DHT22;64265;51.664;7.626;2023-07-02T05:46:04;23.50;91.40
2363;DHT22;64265;51.664;7.626;2023-07-02T05:48:30;23.50;91.40
2363;DHT22;64265;51.664;7.626;2023-07-02T05:50:57;23.50;91.40
2363;DHT22;64265;51.664;7.626;2023-07-02T05:53:25;23.50;91.40
2363;DHT22;64265;51.664;7.626;2023-07-02T05:55:52;23.50;91.40
2363;DHT22;64265;51.664;7.626;2023-07-02T05:58:19;23.50;91.30
2363;DHT22;64265;51.664;7.626;2023-07-02T06:00:46;23.50;91.40
2363;DHT22;64265;51.664;7.626;2023-07-02T06:03:16;23.50;91.30
2363;DHT22;64265;51.664;7.626;2023-07-02T06:05:46;23.50;91.40
2363;DHT22;64265;51.664;7.626;2023-07-02T06:08:14;23.50;91.40
2363;DHT22;64265;51.664;7.626;2023-07-02T06:10:42;23.50;91.40
2363;DHT22;64265;51.664;7.626;2023-07-02T06:13:09;23.40;91.30
2363;DHT22;64265;51.664;7.626;2023-07-02T06:15:36;23.40;91.30
2363;DHT22;64265;51.664;7.626;2023-07-02T06:18:03;23.40;91.30
2363;DHT22;64265;51.664;7.626;2023-07-02T06:20:30;23.50;91.50
2363;DHT22;64265;51.664;7.626;2023-07-02T06:22:56;23.40;91.30
2363;DHT22;64265;51.664;7.626;2023-07-02T06:25:23;23.40;91.30
2363;DHT22;64265;51.664;7.626;2023-07-02T06:27:51;23.40;91.30
2363;DHT22;64265;51.664;7.626;2023-07-02T06:30:20;23.50;91.40
2363;DHT22;64265;51.664;7.626;2023-07-02T06:32:47;23.40;91.30
2363;DHT22;64265;51.664;7.626;2023-07-02T06:35:14;23.40;91.30
2363;DHT22;64265;51.664;7.626;2023-07-02T06:37:40;23.40;91.40
2363;DHT22;64265;51.664;7.626;2023-07-02T06:40:08;23.40;91.30
2363;DHT22;64265;51.664;7.626;2023-07-02T06:42:35;23.40;91.30
2363;DHT22;64265;51.664;7.626;2023-07-02T06:45:04;23.40;91.30
2363;DHT22;64265;51.664;7.626;2023-07-02T06:47:31;23.40;91.30
2363;DHT22;64265;51.664;7.626;2023-07-02T06:49:58;23.40;91.30
2363;DHT22;64265;51.664;7.626;2023-07-02T06:52:25;23.40;90.80
2363;DHT22;64265;51.664;7.626;2023-07-02T06:54:51;23.40;90.10
2363;DHT22;64265;51.664;7.626;2023-07-02T06:57:18;23.30;89.40
2363;DHT22;64265;51.664;7.626;2023-07-02T06:59:45;23.30;90.00
2363;DHT22;64265;51.664;7.626;2023-07-02T07:02:13;23.30;90.10
2363;DHT22;64265;51.664;7.626;2023-07-02T07:04:40;23.30;90.00
2363;DHT22;64265;51.664;7.626;2023-07-02T07:07:06;23.30;89.40
2363;DHT22;64265;51.664;7.626;2023-07-02T07:09:33;23.30;88.70
2363;DHT22;64265;51.664;7.626;2023-07-02T07:12:00;23.30;84.70
2363;DHT22;64265;51.664;7.626;2023-07-02T07:14:27;23.20;82.50
2363;DHT22;64265;51.664;7.626;2023-07-02T07:16:54;22.80;82.90
2363;DHT22;64265;51.664;7.626;2023-07-02T07:19:22;23.20;83.60
2363;DHT22;64265;51.664;7.626;2023-07-02T07:21:49;23.10;87.30
2363;DHT22;64265;51.664;7.626;2023-07-02T07:24:16;23.10;87.30
2363;DHT22;64265;51.664;7.626;2023-07-02T07:26:42;23.00;85.60
2363;DHT22;64265;51.664;7.626;2023-07-02T07:29:10;23.00;86.10
2363;DHT22;64265;51.664;7.626;2023-07-02T07:31:37;23.00;86.10
2363;DHT22;64265;51.664;7.626;2023-07-02T07:34:03;23.10;87.50
2363;DHT22;64265;51.664;7.626;2023-07-02T07:36:32;23.00;88.50
2363;DHT22;64265;51.664;7.626;2023-07-02T07:38:58;23.00;77.50
2363;DHT22;64265;51.664;7.626;2023-07-02T07:41:25;23.00;78.40
2363;DHT22;64265;51.664;7.626;2023-07-02T07:43:52;23.00;77.60
2363;DHT22;64265;51.664;7.626;2023-07-02T07:46:19;23.00;77.90
2363;DHT22;64265;51.664;7.626;2023-07-02T07:48:46;23.00;77.60
2363;DHT22;64265;51.664;7.626;2023-07-02T07:51:13;23.00;77.80
2363;DHT22;64265;51.664;7.626;2023-07-02T07:53:41;23.00;77.40
2363;DHT22;64265;51.664;7.626;2023-07-02T07:56:08;23.00;77.40
2363;DHT22;64265;51.664;7.626;2023-07-02T07:58:35;23.00;77.20
2363;DHT22;64265;51.664;7.626;2023-07-02T08:01:02;23.00;77.30
2363;DHT22;64265;51.664;7.626;2023-07-02T08:03:28;23.00;77.70
2363;DHT22;64265;51.664;7.626;2023-07-02T08:05:55;23.00;77.80
2363;DHT22;64265;51.664;7.626;2023-07-02T08:08:22;23.00;77.50
2363;DHT22;64265;51.664;7.626;2023-07-02T08:10:50;23.00;77.50
2363;DHT22;64265;51.664;7.626;2023-07-02T08:13:17;23.00;77.30
2363;DHT22;64265;51.664;7.626;2023-07-02T08:15:47;23.00;77.40
2363;DHT22;64265;51.664;7.626;2023-07-02T08:18:14;23.00;76.70
2363;DHT22;64265;51.664;7.626;2023-07-02T08:20:40;23.00;76.20
2363;DHT22;64265;51.664;7.626;2023-07-02T08:23:07;23.00;76.50
2363;DHT22;64265;51.664;7.626;2023-07-02T08:25:34;23.00;75.80
2363;DHT22;64265;51.664;7.626;2023-07-02T08:28:02;23.00;75.70
2363;DHT22;64265;51.664;7.626;2023-07-02T08:30:29;23.00;76.80
2363;DHT22;64265;51.664;7.626;2023-07-02T08:32:56;23.00;76.20
2363;DHT22;64265;51.664;7.626;2023-07-02T08:35:23;23.00;75.90
2363;DHT22;64265;51.664;7.626;2023-07-02T08:37:49;23.00;76.30
2363;DHT22;64265;51.664;7.626;2023-07-02T08:40:16;23.00;76.70
2363;DHT22;64265;51.664;7.626;2023-07-02T08:42:45;23.00;77.90
2363;DHT22;64265;51.664;7.626;2023-07-02T08:45:14;23.10;78.10
2363;DHT22;64265;51.664;7.626;2023-07-02T08:47:42;23.10;77.80
2363;DHT22;64265;51.664;7.626;2023-07-02T08:50:10;23.00;77.80
2363;DHT22;64265;51.664;7.626;2023-07-02T08:52:40;23.10;78.30
2363;DHT22;64265;51.664;7.626;2023-07-02T08:55:08;23.10;76.70
2363;DHT22;64265;51.664;7.626;2023-07-02T08:57:35;23.10;75.40
2363;DHT22;64265;51.664;7.626;2023-07-02T09:00:07;23.10;75.90
2363;DHT22;64265;51.664;7.626;2023-07-02T09:02:35;23.10;75.60
2363;DHT22;64265;51.664;7.626;2023-07-02T09:05:03;23.10;75.40
2363;DHT22;64265;51.664;7.626;2023-07-02T09:07:30;23.20;75.40
2363;DHT22;64265;51.664;7.626;2023-07-02T09:09:57;23.20;75.10
2363;DHT22;64265;51.664;7.626;2023-07-02T09:12:25;23.20;74.40
2363;DHT22;64265;51.664;7.626;2023-07-02T09:14:56;23.20;74.40
2363;DHT22;64265;51.664;7.626;2023-07-02T09:17:30;23.20;73.90
2363;DHT22;64265;51.664;7.626;2023-07-02T09:19:59;23.20;73.80
2363;DHT22;64265;51.664;7.626;2023-07-02T09:22:27;23.20;73.90
2363;DHT22;64265;51.664;7.626;2023-07-02T09:24:55;23.20;73.80
2363;DHT22;64265;51.664;7.626;2023-07-02T09:27:33;23.30;74.00
2363;DHT22;64265;51.664;7.626;2023-07-02T09:30:06;23.30;74.30
2363;DHT22;64265;51.664;7.626;2023-07-02T09:32:33;23.30;73.90
2363;DHT22;64265;51.664;7.626;2023-07-02T09:35:01;23.30;74.00
2363;DHT22;64265;51.664;7.626;2023-07-02T09:37:30;23.30;74.00
2363;DHT22;64265;51.664;7.626;2023-07-02T09:39:57;23.30;73.80
2363;DHT22;64265;51.664;7.626;2023-07-02T09:42:25;23.30;73.70
2363;DHT22;64265;51.664;7.626;2023-07-02T09:44:55;23.30;73.80
2363;DHT22;64265;51.664;7.626;2023-07-02T09:47:22;23.30;73.60
2363;DHT22;64265;51.664;7.626;2023-07-02T09:49:53;23.30;73.70
2363;DHT22;64265;51.664;7.626;2023-07-02T09:52:22;23.30;73.70
2363;DHT22;64265;51.664;7.626;2023-07-02T09:54:49;23.30;73.70
2363;DHT22;64265;51.664;7.626;2023-07-02T09:57:16;23.40;73.70
2363;DHT22;64265;51.664;7.626;2023-07-02T09:59:43;23.30;73.40
2363;DHT22;64265;51.664;7.626;2023-07-02T10:02:10;23.30;73.20
2363;DHT22;64265;51.664;7.626;2023-07-02T10:04:45;23.40;73.10
2363;DHT22;64265;51.664;7.626;2023-07-02T10:07:25;23.30;72.50
2363;DHT22;64265;51.664;7.626;2023-07-02T10:09:54;23.30;72.00
2363;DHT22;64265;51.664;7.626;2023-07-02T10:12:21;23.30;71.60
2363;DHT22;64265;51.664;7.626;2023-07-02T10:14:50;23.30;71.20
2363;DHT22;64265;51.664;7.626;2023-07-02T10:17:24;23.30;70.90
2363;DHT22;64265;51.664;7.626;2023-07-02T10:19:53;23.30;71.00
2363;DHT22;64265;51.664;7.626;2023-07-02T10:22:20;23.30;71.40
2363;DHT22;64265;51.664;7.626;2023-07-02T10:24:55;23.30;71.80
2363;DHT22;64265;51.664;7.626;2023-07-02T10:27:35;23.30;72.10
2363;DHT22;64265;51.664;7.626;2023-07-02T10:30:03;23.40;73.00
2363;DHT22;64265;51.664;7.626;2023-07-02T10:32:31;23.40;73.50
2363;DHT22;64265;51.664;7.626;2023-07-02T10:34:59;23.40;73.60
2363;DHT22;64265;51.664;7.626;2023-07-02T10:37:35;23.40;73.30
2363;DHT22;64265;51.664;7.626;2023-07-02T10:40:04;23.30;72.90
2363;DHT22;64265;51.664;7.626;2023-07-02T10:42:32;23.30;72.90
2363;DHT22;64265;51.664;7.626;2023-07-02T10:44:59;23.30;73.10
2363;DHT22;64265;51.664;7.626;2023-07-02T10:47:28;23.30;72.80
2363;DHT22;64265;51.664;7.626;2023-07-02T10:49:55;23.30;72.30
2363;DHT22;64265;51.664;7.626;2023-07-02T10:52:22;23.30;72.10
2363;DHT22;64265;51.664;7.626;2023-07-02T10:54:48;23.30;71.70
2363;DHT22;64265;51.664;7.626;2023-07-02T10:57:19;23.30;71.50
2363;DHT22;64265;51.664;7.626;2023-07-02T10:59:46;23.30;71.20
2363;DHT22;64265;51.664;7.626;2023-07-02T11:02:13;23.30;70.80
2363;DHT22;64265;51.664;7.626;2023-07-02T11:04:40;23.30;70.40
2363;DHT22;64265;51.664;7.626;2023-07-02T11:07:07;23.30;70.30
2363;DHT22;64265;51.664;7.626;2023-07-02T11:09:34;23.30;70.10
2363;DHT22;64265;51.664;7.626;2023-07-02T11:12:01;23.20;70.00
2363;DHT22;64265;51.664;7.626;2023-07-02T11:14:33;23.20;66.50
2363;DHT22;64265;51.664;7.626;2023-07-02T11:17:02;23.20;67.10
2363;DHT22;64265;51.664;7.626;2023-07-02T11:19:30;23.20;67.40
2363;DHT22;64265;51.664;7.626;2023-07-02T11:21:58;23.20;68.30
2363;DHT22;64265;51.664;7.626;2023-07-02T11:24:30;23.20;69.10
2363;DHT22;64265;51.664;7.626;2023-07-02T11:26:57;23.20;69.40
2363;DHT22;64265;51.664;7.626;2023-07-02T11:29:24;23.20;69.50
2363;DHT22;64265;51.664;7.626;2023-07-02T11:31:52;23.20;70.20
2363;DHT22;64265;51.664;7.626;2023-07-02T11:34:21;23.20;70.40
2363;DHT22;64265;51.664;7.626;2023-07-02T11:36:49;23.20;70.90
2363;DHT22;64265;51.664;7.626;2023-07-02T11:39:19;23.20;71.00
2363;DHT22;64265;51.664;7.626;2023-07-02T11:41:47;23.20;71.30
2363;DHT22;64265;51.664;7.626;2023-07-02T11:44:14;23.20;71.40
2363;DHT22;64265;51.664;7.626;2023-07-02T11:46:41;23.20;71.50
2363;DHT22;64265;51.664;7.626;2023-07-02T11:49:09;23.30;71.70
2363;DHT22;64265;51.664;7.626;2023-07-02T11:51:36;23.30;72.00
2363;DHT22;64265;51.664;7.626;2023-07-02T11:54:03;23.30;72.10
2363;DHT22;64265;51.664;7.626;2023-07-02T11:56:30;23.20;72.00
2363;DHT22;64265;51.664;7.626;2023-07-02T11:58:57;23.20;72.10
2363;DHT22;64265;51.664;7.626;2023-07-02T12:01:24;23.30;72.50
2363;DHT22;64265;51.664;7.626;2023-07-02T12:03:51;23.20;72.30
2363;DHT22;64265;51.664;7.626;2023-07-02T12:06:19;23.30;72.70
2363;DHT22;64265;51.664;7.626;2023-07-02T12:08:46;23.20;72.50
2363;DHT22;64265;51.664;7.626;2023-07-02T12:11:12;23.30;72.70
2363;DHT22;64265;51.664;7.626;2023-07-02T12:13:39;23.30;72.90
2363;DHT22;64265;51.664;7.626;2023-07-02T12:16:06;23.20;72.90
2363;DHT22;64265;51.664;7.626;2023-07-02T12:18:32;23.30;73.10
2363;DHT22;64265;51.664;7.626;2023-07-02T12:20:59;23.30;73.20
2363;DHT22;64265;51.664;7.626;2023-07-02T12:23:27;23.20;73.10
2363;DHT22;64265;51.664;7.626;2023-07-02T12:25:54;23.20;73.20
2363;DHT22;64265;51.664;7.626;2023-07-02T12:28:21;23.20;73.40
2363;DHT22;64265;51.664;7.626;2023-07-02T12:30:47;23.30;73.50
2363;DHT22;64265;51.664;7.626;2023-07-02T12:33:14;23.30;73.70
2363;DHT22;64265;51.664;7.626;2023-07-02T12:35:41;23.20;73.60
2363;DHT22;64265;51.664;7.626;2023-07-02T12:38:07;23.30;73.80
2363;DHT22;64265;51.664;7.626;2023-07-02T12:40:36;23.30;73.90
2363;DHT22;64265;51.664;7.626;2023-07-02T12:43:02;23.30;74.10
2363;DHT22;64265;51.664;7.626;2023-07-02T12:45:29;23.30;74.30
2363;DHT22;64265;51.664;7.626;2023-07-02T12:47:57;23.30;74.20
2363;DHT22;64265;51.664;7.626;2023-07-02T12:50:23;23.30;74.40
2363;DHT22;64265;51.664;7.626;2023-07-02T12:52:50;23.30;74.50
2363;DHT22;64265;51.664;7.626;2023-07-02T12:55:17;23.30;74.60
2363;DHT22;64265;51.664;7.626;2023-07-02T12:57:45;23.30;74.60
2363;DHT22;64265;51.664;7.626;2023-07-02T13:00:12;23.30;75.60
2363;DHT22;64265;51.664;7.626;2023-07-02T13:02:39;23.30;74.90
2363;DHT22;64265;51.664;7.626;2023-07-02T13:05:06;23.30;74.90
2363;DHT22;64265;51.664;7.626;2023-07-02T13:07:33;23.30;75.00
2363;DHT22;64265;51.664;7.626;2023-07-02T13:10:00;23.30;75.20
2363;DHT22;64265;51.664;7.626;2023-07-02T13:12:26;23.30;75.20
2363;DHT22;64265;51.664;7.626;2023-07-02T13:14:55;23.30;75.30
2363;DHT22;64265;51.664;7.626;2023-07-02T13:17:22;23.30;75.30
2363;DHT22;64265;51.664;7.626;2023-07-02T13:19:48;23.30;75.40
2363;DHT22;64265;51.664;7.626;2023-07-02T13:22:15;23.30;75.30
2363;DHT22;64265;51.664;7.626;2023-07-02T13:24:42;23.20;75.30
2363;DHT22;64265;51.664;7.626;2023-07-02T13:27:13;23.30;75.50
2363;DHT22;64265;51.664;7.626;2023-07-02T13:29:41;23.20;75.40
2363;DHT22;64265;51.664;7.626;2023-07-02T13:32:09;23.20;75.20
2363;DHT22;64265;51.664;7.626;2023-07-02T13:34:36;23.20;75.20
2363;DHT22;64265;51.664;7.626;2023-07-02T13:37:04;23.20;75.20
2363;DHT22;64265;51.664;7.626;2023-07-02T13:39:30;23.30;75.30
2363;DHT22;64265;51.664;7.626;2023-07-02T13:41:57;23.20;75.10
2363;DHT22;64265;51.664;7.626;2023-07-02T13:44:24;23.20;75.10
2363;DHT22;64265;51.664;7.626;2023-07-02T13:46:51;23.20;75.10
2363;DHT22;64265;51.664;7.626;2023-07-02T13:49:22;23.30;75.30
2363;DHT22;64265;51.664;7.626;2023-07-02T13:51:49;23.30;75.10
2363;DHT22;64265;51.664;7.626;2023-07-02T13:54:16;23.30;75.30
2363;DHT22;64265;51.664;7.626;2023-07-02T13:56:44;23.30;75.40
2363;DHT22;64265;51.664;7.626;2023-07-02T13:59:12;23.30;75.40
2363;DHT22;64265;51.664;7.626;2023-07-02T14:01:39;23.30;75.50
2363;DHT22;64265;51.664;7.626;2023-07-02T14:04:06;23.30;75.50
2363;DHT22;64265;51.664;7.626;2023-07-02T14:06:33;23.30;75.00
2363;DHT22;64265;51.664;7.626;2023-07-02T14:09:00;23.30;72.50
2363;DHT22;64265;51.664;7.626;2023-07-02T14:11:28;23.30;73.20
2363;DHT22;64265;51.664;7.626;2023-07-02T14:13:55;23.30;73.80
2363;DHT22;64265;51.664;7.626;2023-07-02T14:16:24;23.30;73.40
2363;DHT22;64265;51.664;7.626;2023-07-02T14:18:50;23.30;73.30
2363;DHT22;64265;51.664;7.626;2023-07-02T14:21:17;23.30;73.50
2363;DHT22;64265;51.664;7.626;2023-07-02T14:23:44;23.40;73.80
2363;DHT22;64265;51.664;7.626;2023-07-02T14:26:11;23.40;73.30
2363;DHT22;64265;51.664;7.626;2023-07-02T14:28:38;23.40;73.30
2363;DHT22;64265;51.664;7.626;2023-07-02T14:31:06;23.40;73.40
2363;DHT22;64265;51.664;7.626;2023-07-02T14:33:35;23.50;73.50
2363;DHT22;64265;51.664;7.626;2023-07-02T14:36:03;23.50;73.10
2363;DHT22;64265;51.664;7.626;2023-07-02T14:38:30;23.50;72.70
2363;DHT22;64265;51.664;7.626;2023-07-02T14:40:59;23.50;72.60
2363;DHT22;64265;51.664;7.626;2023-07-02T14:43:28;23.50;72.50
2363;DHT22;64265;51.664;7.626;2023-07-02T14:45:57;23.60;73.10
2363;DHT22;64265;51.664;7.626;2023-07-02T14:48:25;23.60;73.20
2363;DHT22;64265;51.664;7.626;2023-07-02T14:50:54;23.70;73.40
2363;DHT22;64265;51.664;7.626;2023-07-02T14:53:22;23.70;73.10
2363;DHT22;64265;51.664;7.626;2023-07-02T14:55:50;23.70;73.40
2363;DHT22;64265;51.664;7.626;2023-07-02T14:58:17;23.80;72.30
2363;DHT22;64265;51.664;7.626;2023-07-02T15:00:44;23.80;71.20
2363;DHT22;64265;51.664;7.626;2023-07-02T15:03:11;23.80;71.80
2363;DHT22;64265;51.664;7.626;2023-07-02T15:05:39;23.80;70.40
2363;DHT22;64265;51.664;7.626;2023-07-02T15:08:08;23.90;70.90
2363;DHT22;64265;51.664;7.626;2023-07-02T15:10:35;23.90;71.60
2363;DHT22;64265;51.664;7.626;2023-07-02T15:13:04;23.90;71.50
2363;DHT22;64265;51.664;7.626;2023-07-02T15:15:31;23.90;71.90
2363;DHT22;64265;51.664;7.626;2023-07-02T15:18:05;23.90;71.80
2363;DHT22;64265;51.664;7.626;2023-07-02T15:20:33;24.00;71.90
2363;DHT22;64265;51.664;7.626;2023-07-02T15:23:00;24.00;71.80
2363;DHT22;64265;51.664;7.626;2023-07-02T15:25:30;24.00;71.70
2363;DHT22;64265;51.664;7.626;2023-07-02T15:27:56;24.00;72.00
2363;DHT22;64265;51.664;7.626;2023-07-02T15:30:24;24.10;72.30
2363;DHT22;64265;51.664;7.626;2023-07-02T15:32:50;24.10;71.80
2363;DHT22;64265;51.664;7.626;2023-07-02T15:35:17;24.10;71.60
2363;DHT22;64265;51.664;7.626;2023-07-02T15:37:44;24.10;71.50
2363;DHT22;64265;51.664;7.626;2023-07-02T15:40:11;24.20;71.10
2363;DHT22;64265;51.664;7.626;2023-07-02T15:42:40;24.20;71.10
2363;DHT22;64265;51.664;7.626;2023-07-02T15:45:09;24.20;71.10
2363;DHT22;64265;51.664;7.626;2023-07-02T15:47:42;24.20;71.50
2363;DHT22;64265;51.664;7.626;2023-07-02T15:50:14;24.30;71.50